Time;durP1;ratioP1;P1;durP2;ratioP2;P2;SDS_P1;SDS_P2;PMS_P1;PMS_P2;Temp;Humidity;BMP_temperature;BMP_pressure;BME280_temperature;BME280_humidity;BME280_pressure;Samples;Min_cycle;Max_cycle;Signal;HPM_P1;HPM_P2
2021/01/08 00:00:17;;;;;;;22.25;15.08;;;;;;;0.21;72.28;96156.94;1779349;78;21085;-84
2021/01/08 00:02:45;;;;;;;15.65;10.43;;;;;;;0.20;72.38;96155.31;1774808;80;21220;-83
2021/01/08 00:05:12;;;;;;;19.80;13.22;;;;;;;0.19;72.34;96155.78;1790138;78;21105;-83
2021/01/08 00:07:38;;;;;;;15.08;10.20;;;;;;;0.20;72.52;96155.31;1803041;78;21419;-83
2021/01/08 00:10:06;;;;;;;27.05;23.70;;;;;;;0.16;72.06;96152.20;1787697;78;21117;-83
2021/01/08 00:12:33;;;;;;;13.28;10.38;;;;;;;0.16;72.30;96145.81;1784928;80;21074;-83
2021/01/08 00:14:59;;;;;;;9.08;7.00;;;;;;;0.14;72.32;96150.68;1739586;80;21141;-82
2021/01/08 00:17:25;;;;;;;9.78;7.03;;;;;;;0.15;72.39;96145.91;1770380;80;21085;-84
2021/01/08 00:19:53;;;;;;;10.58;7.35;;;;;;;0.15;72.16;96148.00;1760358;80;21266;-83
2021/01/08 00:22:20;;;;;;;8.80;6.90;;;;;;;0.13;72.43;96152.42;1776394;79;21897;-83
2021/01/08 00:24:47;;;;;;;12.35;9.78;;;;;;;0.08;72.38;96148.62;1771382;80;21332;-84
2021/01/08 00:27:13;;;;;;;13.43;9.88;;;;;;;0.15;72.53;96158.22;1755491;80;21122;-83
2021/01/08 00:29:40;;;;;;;19.75;13.40;;;;;;;0.14;72.46;96157.88;1758192;80;21133;-83
2021/01/08 00:32:11;;;;;;;24.45;15.25;;;;;;;0.16;72.53;96156.47;1775205;80;21104;-83
2021/01/08 00:34:38;;;;;;;19.20;13.13;;;;;;;0.17;72.48;96151.27;1725992;80;21133;-84
2021/01/08 00:37:05;;;;;;;15.28;11.30;;;;;;;0.15;72.34;96155.66;1759570;80;21097;-85
2021/01/08 00:39:31;;;;;;;17.02;11.85;;;;;;;0.13;72.44;96152.89;1771450;79;21471;-84
2021/01/08 00:41:57;;;;;;;17.30;11.50;;;;;;;0.11;72.55;96145.35;1745025;80;21111;-84
2021/01/08 00:44:24;;;;;;;7.90;5.72;;;;;;;0.10;72.58;96146.75;1776178;80;21122;-85
2021/01/08 00:46:50;;;;;;;7.17;5.33;;;;;;;0.08;72.34;96143.05;1785926;80;21097;-85
2021/01/08 00:49:17;;;;;;;5.35;4.15;;;;;;;0.04;72.08;96144.23;1761120;80;21336;-86
2021/01/08 00:51:44;;;;;;;6.60;4.80;;;;;;;0.03;72.42;96139.25;1767290;80;21116;-85
2021/01/08 00:54:10;;;;;;;5.58;4.40;;;;;;;0.02;72.42;96135.89;1782426;79;21868;-84
2021/01/08 00:56:36;;;;;;;5.37;4.58;;;;;;;0.02;72.22;96141.00;1770472;80;21336;-84
2021/01/08 00:59:03;;;;;;;7.25;5.33;;;;;;;0.01;72.34;96141.12;1765949;80;21070;-84
2021/01/08 01:01:29;;;;;;;8.78;5.53;;;;;;;0.00;72.46;96150.53;1765123;80;21232;-84
2021/01/08 01:03:56;;;;;;;7.55;6.05;;;;;;;-0.01;72.39;96148.88;1777072;79;21106;-85
2021/01/08 01:06:31;;;;;;;7.45;6.62;;;;;;;0.01;72.24;96146.23;1793549;79;21320;-85
2021/01/08 01:08:57;;;;;;;12.40;10.23;;;;;;;0.02;72.40;96150.41;1800020;79;21129;-85
2021/01/08 01:11:25;;;;;;;11.28;9.23;;;;;;;0.04;72.47;96153.17;1806001;79;21105;-84
2021/01/08 01:13:53;;;;;;;12.15;9.63;;;;;;;0.06;72.32;96152.58;1789105;79;21109;-85
2021/01/08 01:16:20;;;;;;;13.88;8.85;;;;;;;0.07;72.60;96153.39;1801952;79;21246;-84
2021/01/08 01:18:47;;;;;;;11.08;8.00;;;;;;;0.06;72.60;96154.33;1795508;78;21141;-85
2021/01/08 01:21:13;;;;;;;11.78;8.75;;;;;;;0.09;72.72;96157.44;1798175;79;21086;-85
2021/01/08 01:23:40;;;;;;;11.18;8.00;;;;;;;0.13;72.64;96142.20;1799278;79;21398;-84
2021/01/08 01:26:06;;;;;;;11.60;8.38;;;;;;;0.15;72.50;96147.19;1802555;79;21085;-84
2021/01/08 01:28:33;;;;;;;11.83;9.65;;;;;;;0.20;72.72;96139.98;1796286;78;21146;-84
2021/01/08 01:30:59;;;;;;;10.70;8.98;;;;;;;0.27;72.75;96140.62;1759531;81;21129;-85
2021/01/08 01:33:25;;;;;;;12.37;10.40;;;;;;;0.31;72.69;96134.80;1750382;82;21130;-85
2021/01/08 01:35:52;;;;;;;10.93;8.73;;;;;;;0.30;72.46;96142.12;1737365;81;21121;-84
2021/01/08 01:38:19;;;;;;;10.50;7.72;;;;;;;0.28;72.57;96142.25;1732449;81;21098;-85
2021/01/08 01:40:45;;;;;;;10.25;6.10;;;;;;;0.26;72.64;96133.09;1737246;81;21367;-85
2021/01/08 01:43:12;;;;;;;7.20;5.37;;;;;;;0.21;72.98;96134.75;1699858;81;21387;-85
2021/01/08 01:45:38;;;;;;;7.10;4.97;;;;;;;0.20;73.31;96134.88;1729705;82;21141;-85
2021/01/08 01:48:06;;;;;;;6.55;3.95;;;;;;;0.17;72.62;96125.72;1762794;81;21133;-85
2021/01/08 01:50:32;;;;;;;5.80;4.80;;;;;;;0.12;72.51;96127.81;1739677;81;21129;-85
2021/01/08 01:52:58;;;;;;;6.97;4.80;;;;;;;0.09;72.23;96134.45;1736216;81;21144;-85
2021/01/08 01:55:24;;;;;;;5.37;4.22;;;;;;;0.07;72.46;96127.84;1732890;81;21140;-84
2021/01/08 01:57:51;;;;;;;5.72;4.45;;;;;;;0.04;72.55;96123.80;1759574;80;21126;-85
2021/01/08 02:00:18;;;;;;;5.05;4.40;;;;;;;0.03;72.99;96127.29;1748533;81;21522;-84
2021/01/08 02:02:56;;;;;;;6.42;4.58;;;;;;;0.04;73.17;96121.24;1746235;81;21149;-84
2021/01/08 02:05:23;;;;;;;5.22;3.90;;;;;;;0.04;72.59;96119.16;1738480;81;21388;-84
2021/01/08 02:08:12;;;;;;;6.65;5.03;;;;;;;0.05;72.59;96116.48;1747932;81;21513;-84
2021/01/08 02:11:07;;;;;;;5.33;3.90;;;;;;;0.05;72.64;96111.38;1730487;81;21446;-84
2021/01/08 02:14:08;;;;;;;4.35;3.70;;;;;;;0.04;72.68;96109.75;1803045;78;21098;-87
2021/01/08 02:16:34;;;;;;;4.75;3.58;;;;;;;0.02;72.84;96101.88;1744906;81;21154;-84
2021/01/08 02:19:00;;;;;;;4.37;3.98;;;;;;;0.01;72.80;96107.91;1755681;81;21252;-84
2021/01/08 02:21:33;;;;;;;6.42;4.72;;;;;;;0.01;72.68;96101.53;1799357;78;21109;-84
2021/01/08 02:24:05;;;;;;;6.53;5.30;;;;;;;0.01;72.41;96104.89;1789709;78;21319;-83
2021/01/08 02:26:31;;;;;;;5.55;4.62;;;;;;;0.03;72.72;96100.94;1797973;78;21352;-83
2021/01/08 02:28:57;;;;;;;5.60;4.37;;;;;;;0.02;72.53;96097.57;1792183;78;21130;-84
2021/01/08 02:31:24;;;;;;;6.10;5.45;;;;;;;0.06;72.72;96093.02;1798510;78;21113;-83
2021/01/08 02:33:50;;;;;;;4.72;4.33;;;;;;;0.06;72.47;96091.73;1771000;78;21628;-83
2021/01/08 02:36:16;;;;;;;6.50;4.45;;;;;;;0.05;72.19;96090.94;1795923;78;21113;-84
2021/01/08 02:38:42;;;;;;;6.97;4.90;;;;;;;0.07;72.52;96085.23;1798975;78;21227;-83
2021/01/08 02:41:09;;;;;;;4.95;4.40;;;;;;;0.08;72.05;96084.77;1763527;78;21113;-83
2021/01/08 02:43:35;;;;;;;6.92;4.67;;;;;;;0.07;72.22;96084.42;1804599;78;21661;-83
2021/01/08 02:46:02;;;;;;;5.40;4.67;;;;;;;0.08;72.18;96084.77;1800914;78;21109;-83
2021/01/08 02:48:29;;;;;;;5.33;4.83;;;;;;;0.07;72.15;96089.06;1794423;78;21136;-83
2021/01/08 02:50:55;;;;;;;5.33;4.70;;;;;;;0.09;71.87;96092.30;1762283;80;21113;-83
2021/01/08 02:53:22;;;;;;;4.65;3.77;;;;;;;0.11;71.79;96090.89;1759680;80;21112;-83
2021/01/08 02:55:58;;;;;;;4.35;3.95;;;;;;;0.12;71.48;96092.05;1766333;80;21122;-83
2021/01/08 02:58:24;;;;;;;4.53;3.20;;;;;;;0.12;71.37;96086.94;1766675;80;21105;-83
2021/01/08 03:00:52;;;;;;;6.60;5.90;;;;;;;0.14;71.40;96087.61;1795805;78;21124;-83
2021/01/08 03:03:18;;;;;;;5.45;4.15;;;;;;;0.15;71.24;96084.59;1796819;78;21113;-82
2021/01/08 03:05:44;;;;;;;4.83;4.40;;;;;;;0.18;71.52;96093.31;1798966;78;21126;-83
2021/01/08 03:08:10;;;;;;;6.53;4.95;;;;;;;0.18;71.31;96089.48;1803392;78;21110;-83
2021/01/08 03:10:36;;;;;;;5.78;4.60;;;;;;;0.20;71.53;96092.72;1772890;78;21340;-83
2021/01/08 03:13:05;;;;;;;4.15;3.75;;;;;;;0.23;71.59;96092.45;1797615;78;21109;-83
2021/01/08 03:15:31;;;;;;;6.60;4.78;;;;;;;0.24;71.32;96088.97;1800481;78;21157;-83
2021/01/08 03:17:57;;;;;;;3.45;3.15;;;;;;;0.25;71.35;96090.11;1793933;78;21222;-83
2021/01/08 03:20:23;;;;;;;4.25;3.10;;;;;;;0.27;70.77;96098.93;1766801;80;21086;-83
2021/01/08 03:22:49;;;;;;;4.30;3.90;;;;;;;0.26;70.72;96092.20;1756924;80;21133;-83
2021/01/08 03:25:15;;;;;;;6.28;5.53;;;;;;;0.24;71.24;96100.47;1792421;78;21124;-83
2021/01/08 03:27:41;;;;;;;5.00;4.35;;;;;;;0.22;71.27;96102.34;1799549;78;21279;-83
2021/01/08 03:30:09;;;;;;;6.15;5.28;;;;;;;0.21;71.04;96096.42;1796430;78;21135;-83
2021/01/08 03:32:35;;;;;;;4.75;3.87;;;;;;;0.21;71.16;96100.72;1808969;78;21098;-83
2021/01/08 03:35:05;;;;;;;5.75;4.15;;;;;;;0.21;71.08;96099.44;1768644;78;21125;-83
2021/01/08 03:37:31;;;;;;;5.37;4.60;;;;;;;0.21;71.20;96099.44;1805267;78;21102;-83
2021/01/08 03:39:58;;;;;;;5.67;5.08;;;;;;;0.21;71.20;96109.20;1795428;78;21106;-83
2021/01/08 03:42:24;;;;;;;5.00;4.50;;;;;;;0.21;71.58;96104.09;1795935;78;21080;-84
2021/01/08 03:44:50;;;;;;;6.95;4.72;;;;;;;0.21;71.43;96102.00;1810468;78;21088;-83
2021/01/08 03:47:16;;;;;;;4.45;4.05;;;;;;;0.22;71.45;96102.34;1803354;78;21126;-83
2021/01/08 03:49:42;;;;;;;4.97;4.37;;;;;;;0.21;71.51;96103.27;1765029;80;21391;-83
2021/01/08 03:52:08;;;;;;;4.78;4.28;;;;;;;0.22;71.71;96110.81;1785418;79;21143;-83
2021/01/08 03:54:36;;;;;;;6.45;5.10;;;;;;;0.20;71.72;96102.47;1774122;79;21472;-83
2021/01/08 03:57:03;;;;;;;6.33;4.78;;;;;;;0.21;71.85;96104.55;1774456;79;21130;-83
2021/01/08 03:59:29;;;;;;;5.53;5.00;;;;;;;0.17;71.89;96098.08;1770485;79;21125;-83
2021/01/08 04:01:55;;;;;;;7.00;5.53;;;;;;;0.20;72.15;96105.48;1725409;81;21162;-84
2021/01/08 04:04:21;;;;;;;6.33;5.67;;;;;;;0.20;72.29;96104.21;1757767;80;21403;-83
2021/01/08 04:06:47;;;;;;;5.70;5.10;;;;;;;0.19;72.14;96102.59;1804681;78;21092;-83
2021/01/08 04:09:14;;;;;;;6.62;5.55;;;;;;;0.21;72.22;96110.94;1773514;78;21244;-84
2021/01/08 04:11:40;;;;;;;7.17;6.45;;;;;;;0.20;72.21;96110.13;1803886;78;21156;-83
2021/01/08 04:14:06;;;;;;;6.30;5.62;;;;;;;0.21;72.40;96115.58;1802111;78;21077;-83
2021/01/08 04:16:36;;;;;;;6.60;5.90;;;;;;;0.23;72.51;96112.91;1806723;79;21266;-83
2021/01/08 04:19:03;;;;;;;6.80;5.55;;;;;;;0.25;72.43;96116.14;1796039;79;21221;-83
2021/01/08 04:21:29;;;;;;;6.45;5.75;;;;;;;0.25;72.63;96105.91;1804307;79;21109;-83
2021/01/08 04:23:55;;;;;;;7.62;6.47;;;;;;;0.26;72.77;96111.37;1794897;78;21097;-83
2021/01/08 04:26:21;;;;;;;7.47;6.33;;;;;;;0.27;72.68;96111.70;1809514;79;21102;-84
2021/01/08 04:28:47;;;;;;;7.25;6.10;;;;;;;0.29;72.71;96111.92;1793373;79;21822;-83
2021/01/08 04:31:14;;;;;;;8.10;6.10;;;;;;;0.28;72.53;96114.14;1809525;79;21434;-83
2021/01/08 04:33:40;;;;;;;6.78;5.80;;;;;;;0.30;72.65;96115.28;1792285;79;21137;-83
2021/01/08 04:36:09;;;;;;;11.25;7.05;;;;;;;0.32;72.66;96115.97;1805679;79;21228;-83
2021/01/08 04:38:36;;;;;;;9.68;6.92;;;;;;;0.34;72.80;96112.84;1795539;79;21240;-83
2021/01/08 04:41:04;;;;;;;7.08;6.28;;;;;;;0.35;72.65;96114.47;1806260;79;21141;-83
2021/01/08 04:43:30;;;;;;;6.80;5.75;;;;;;;0.35;72.60;96117.02;1804624;78;21108;-84
2021/01/08 04:46:12;;;;;;;8.23;6.85;;;;;;;0.34;72.68;96123.07;1757141;81;21135;-83
2021/01/08 04:48:46;;;;;;;8.50;6.22;;;;;;;0.36;72.63;96114.00;1802768;76;23173;-85
2021/01/08 04:51:12;;;;;;;6.95;6.12;;;;;;;0.33;72.71;96117.62;1757910;78;21453;-85
2021/01/08 04:53:38;;;;;;;7.53;6.10;;;;;;;0.31;72.70;96122.02;1773653;79;21238;-85
2021/01/08 04:56:08;;;;;;;7.22;5.92;;;;;;;0.28;72.84;96115.41;1749829;81;21362;-85
2021/01/08 04:58:34;;;;;;;7.65;6.85;;;;;;;0.30;72.48;96121.20;1750184;81;21136;-85
2021/01/08 05:01:01;;;;;;;8.70;6.15;;;;;;;0.30;72.60;96117.38;1753579;81;21303;-85
2021/01/08 05:03:28;;;;;;;8.38;6.67;;;;;;;0.31;72.48;96124.58;1743969;81;21112;-85
2021/01/08 05:05:55;;;;;;;7.85;6.10;;;;;;;0.28;72.73;96116.69;1740332;81;21255;-84
2021/01/08 05:08:22;;;;;;;7.80;5.62;;;;;;;0.28;72.59;96115.41;1740372;81;21141;-85
2021/01/08 05:10:49;;;;;;;8.40;5.87;;;;;;;0.28;72.61;96115.41;1752509;81;21090;-85
2021/01/08 05:13:15;;;;;;;8.50;6.25;;;;;;;0.26;72.26;96119.03;1749539;81;21101;-85
2021/01/08 05:15:50;;;;;;;8.80;5.92;;;;;;;0.22;72.16;96113.37;1751718;81;21114;-85
2021/01/08 05:18:16;;;;;;;12.37;9.68;;;;;;;0.24;72.17;96111.50;1743214;81;21097;-85
2021/01/08 05:20:42;;;;;;;7.67;6.25;;;;;;;0.24;72.26;96111.96;1744432;81;21274;-85
2021/01/08 05:23:11;;;;;;;6.78;5.67;;;;;;;0.23;72.37;96103.48;1751521;81;21836;-85
2021/01/08 05:25:39;;;;;;;5.95;5.28;;;;;;;0.23;72.18;96111.63;1722551;81;21166;-85
2021/01/08 05:28:06;;;;;;;6.12;4.45;;;;;;;0.24;72.15;96115.80;1708892;81;21149;-84
2021/01/08 05:30:32;;;;;;;6.80;5.87;;;;;;;0.24;72.12;96115.80;1744945;81;21378;-85
2021/01/08 05:33:01;;;;;;;6.40;4.92;;;;;;;0.26;72.10;96112.64;1744076;81;21098;-85
2021/01/08 05:35:28;;;;;;;7.28;5.35;;;;;;;0.25;72.17;96111.03;1746561;81;21181;-85
2021/01/08 05:37:55;;;;;;;6.05;4.67;;;;;;;0.27;72.03;96116.35;1745584;81;21098;-85
2021/01/08 05:40:25;;;;;;;5.50;4.72;;;;;;;0.26;71.84;96115.20;1752291;81;21120;-85
2021/01/08 05:42:59;;;;;;;6.00;5.22;;;;;;;0.25;71.80;96118.69;1742625;81;21499;-84
2021/01/08 05:45:27;;;;;;;8.13;5.72;;;;;;;0.25;71.99;96109.75;1742504;81;22011;-84
2021/01/08 05:47:56;;;;;;;7.10;6.10;;;;;;;0.26;71.63;96115.20;1730638;81;21170;-85
2021/01/08 05:50:24;;;;;;;6.92;5.42;;;;;;;0.26;71.85;96116.48;1741562;81;21163;-85
2021/01/08 05:53:09;;;;;;;8.50;6.20;;;;;;;0.26;71.77;96116.48;1760557;80;21260;-85
2021/01/08 05:55:39;;;;;;;7.62;5.92;;;;;;;0.29;71.73;96119.59;1747650;81;21146;-84
2021/01/08 05:58:24;;;;;;;8.15;6.12;;;;;;;0.30;71.88;96116.56;1760375;80;21575;-85
2021/01/08 06:00:58;;;;;;;8.05;6.12;;;;;;;0.29;71.63;96115.75;1711864;81;21135;-84
2021/01/08 06:03:25;;;;;;;10.35;7.05;;;;;;;0.29;71.86;96119.59;1766875;80;21138;-85
2021/01/08 06:05:59;;;;;;;7.00;4.72;;;;;;;0.30;71.85;96114.81;1746749;81;21243;-85
2021/01/08 06:08:50;;;;;;;7.25;5.65;;;;;;;0.26;71.62;96116.48;1747148;81;21120;-85
2021/01/08 06:11:30;;;;;;;9.60;6.92;;;;;;;0.24;71.57;96117.08;1749926;81;21267;-85
2021/01/08 06:14:01;;;;;;;8.13;6.15;;;;;;;0.20;71.65;96115.71;1750885;81;21176;-84
2021/01/08 06:16:46;;;;;;;7.83;5.50;;;;;;;0.19;71.74;96116.65;1715706;81;21383;-84
2021/01/08 06:19:13;;;;;;;6.72;5.92;;;;;;;0.18;71.75;96117.58;1722847;81;21387;-85
2021/01/08 06:21:44;;;;;;;10.78;7.70;;;;;;;0.16;71.84;96120.70;1739796;81;21168;-83
2021/01/08 06:24:27;;;;;;;12.07;9.07;;;;;;;0.14;71.94;96120.02;1758454;80;21113;-85
2021/01/08 06:26:53;;;;;;;59.27;36.85;;;;;;;0.14;72.34;96113.16;1759575;81;21633;-84
2021/01/08 06:29:22;;;;;;;51.63;34.85;;;;;;;0.14;72.05;96122.58;1760862;81;21411;-85
2021/01/08 06:31:53;;;;;;;17.10;11.35;;;;;;;0.14;72.21;96118.27;1751196;81;21137;-85
2021/01/08 06:34:29;;;;;;;9.18;7.28;;;;;;;0.14;72.24;96121.30;1734982;82;21130;-85
2021/01/08 06:37:06;;;;;;;7.78;6.97;;;;;;;0.06;72.00;96107.06;1740273;82;21361;-83
2021/01/08 06:39:39;;;;;;;9.03;6.40;;;;;;;0.13;71.97;96121.77;1724548;82;21256;-84
2021/01/08 06:42:06;;;;;;;10.20;7.58;;;;;;;0.15;71.79;96126.28;1745117;82;21412;-84
2021/01/08 06:44:32;;;;;;;9.98;7.12;;;;;;;0.14;71.88;96125.12;1734369;82;21137;-83
2021/01/08 06:47:03;;;;;;;9.00;6.87;;;;;;;0.14;71.87;96125.94;1739452;82;21138;-84
2021/01/08 06:49:31;;;;;;;11.10;7.92;;;;;;;0.15;71.96;96127.55;1727730;82;21126;-84
2021/01/08 06:52:00;;;;;;;127.50;52.43;;;;;;;0.18;72.25;96133.72;1735930;82;21146;-84
2021/01/08 06:54:28;;;;;;;355.87;186.85;;;;;;;0.22;71.87;96135.55;1793690;78;21247;-84
2021/01/08 06:57:02;;;;;;;422.10;245.57;;;;;;;0.20;71.57;96141.27;1807879;79;21098;-84
2021/01/08 06:59:34;;;;;;;93.65;46.65;;;;;;;0.22;72.01;96138.11;1806969;79;21328;-84
2021/01/08 07:02:14;;;;;;;;;;;;;;;0.25;71.89;96141.69;1810428;78;21124;-84
2021/01/08 07:04:41;;;;;;;123.70;47.98;;;;;;;0.24;71.44;96140.07;1795426;78;20474;-83
2021/01/08 07:07:13;;;;;;;116.90;46.13;;;;;;;0.26;71.50;96148.42;1742445;78;21126;-82
2021/01/08 07:09:41;;;;;;;82.85;33.73;;;;;;;0.27;71.30;96144.93;1819386;78;21119;-83
2021/01/08 07:12:20;;;;;;;;;;;;;;;;;;;;;
2021/01/08 07:15:03;;;;;;;136.77;68.42;;;;;;;0.29;71.07;96146.42;1896835;74;26395;-82
2021/01/08 07:17:33;;;;;;;90.85;42.03;;;;;;;0.27;71.02;96153.41;1847638;76;21136;-82
2021/01/08 07:20:00;;;;;;;17.12;9.08;;;;;;;0.30;70.92;96153.63;1877872;75;21128;-83
2021/01/08 07:22:33;;;;;;;17.07;11.18;;;;;;;0.30;71.07;96160.01;1885417;75;21105;-84
2021/01/08 07:24:59;;;;;;;22.50;15.15;;;;;;;0.28;70.85;96155.02;1857073;75;21248;-85
2021/01/08 07:27:26;;;;;;;21.97;14.10;;;;;;;0.31;71.03;96152.69;1811872;75;21309;-85
2021/01/08 07:29:59;;;;;;;12.88;9.55;;;;;;;0.34;70.91;96153.73;1838870;75;21457;-84
2021/01/08 07:32:42;;;;;;;17.82;12.45;;;;;;;0.38;70.77;96155.58;1861508;75;21214;-85
2021/01/08 07:35:28;;;;;;;25.08;15.48;;;;;;;0.40;70.82;96157.06;1862335;75;21120;-85
2021/01/08 07:38:08;;;;;;;23.12;14.68;;;;;;;0.44;71.03;96158.42;1878544;75;21073;-83
2021/01/08 07:40:50;;;;;;;28.87;18.10;;;;;;;0.46;70.92;96157.02;1874427;75;21296;-83
2021/01/08 07:43:16;;;;;;;30.65;20.90;;;;;;;0.50;70.86;96158.42;1880732;75;21190;-84
2021/01/08 07:45:55;;;;;;;27.02;20.20;;;;;;;0.49;70.79;96149.94;1866944;75;21112;-81
2021/01/08 07:48:34;;;;;;;32.48;21.02;;;;;;;0.55;70.78;96159.66;1845361;75;21081;-81
2021/01/08 07:51:06;;;;;;;41.60;24.90;;;;;;;0.63;70.52;96165.41;1865293;75;21115;-81
2021/01/08 07:53:48;;;;;;;23.40;15.35;;;;;;;0.65;70.46;96165.27;1872281;75;21138;-82
2021/01/08 07:56:26;;;;;;;37.28;26.52;;;;;;;0.65;70.12;96166.12;1871577;75;21663;-81
2021/01/08 07:59:05;;;;;;;33.60;20.95;;;;;;;0.68;70.47;96168.88;1863554;75;21094;-82
2021/01/08 08:01:34;;;;;;;26.10;16.73;;;;;;;0.73;70.28;96168.84;1861545;75;21088;-82
2021/01/08 08:04:10;;;;;;;24.10;18.23;;;;;;;0.78;70.46;96172.28;1853548;75;21054;-82
2021/01/08 08:06:39;;;;;;;17.87;13.48;;;;;;;0.80;70.47;96167.38;1862101;75;21218;-81
2021/01/08 08:09:07;;;;;;;14.10;9.88;;;;;;;0.81;70.19;96169.47;1844648;76;21081;-81
2021/01/08 08:11:35;;;;;;;10.23;8.55;;;;;;;0.80;70.17;96171.69;1824414;77;21339;-82
2021/01/08 08:14:03;;;;;;;9.58;8.53;;;;;;;0.75;69.69;96178.94;1787315;78;21713;-84
2021/01/08 08:16:39;;;;;;;11.05;9.88;;;;;;;0.71;69.90;96177.11;1802983;78;21057;-84
2021/01/08 08:19:09;;;;;;;10.32;7.80;;;;;;;0.70;69.82;96174.68;1821250;76;21065;-84
2021/01/08 08:21:36;;;;;;;11.15;10.03;;;;;;;0.69;69.59;96176.42;1787213;78;21100;-82
2021/01/08 08:24:05;;;;;;;9.45;6.85;;;;;;;0.68;69.44;96177.83;1825739;76;21736;-84
2021/01/08 08:26:35;;;;;;;17.87;11.45;;;;;;;0.67;69.36;96179.58;1828802;76;21145;-84
2021/01/08 08:29:10;;;;;;;11.55;7.40;;;;;;;0.68;69.50;96189.34;1798093;78;21101;-84
2021/01/08 08:31:46;;;;;;;12.68;9.98;;;;;;;0.68;69.10;96190.63;1820062;76;21151;-84
2021/01/08 08:34:14;;;;;;;9.23;7.53;;;;;;;0.66;69.54;96192.50;1831340;76;21117;-84
2021/01/08 08:36:40;;;;;;;15.10;9.90;;;;;;;0.63;69.18;96189.69;1833420;76;21099;-84
2021/01/08 08:39:13;;;;;;;14.03;9.30;;;;;;;0.59;69.21;96190.42;1834077;76;21371;-84
2021/01/08 08:41:45;;;;;;;18.15;11.97;;;;;;;0.60;69.11;96192.51;1836632;76;21073;-84
2021/01/08 08:44:15;;;;;;;13.48;8.60;;;;;;;0.64;69.30;96195.62;1837541;76;21356;-84
2021/01/08 08:46:53;;;;;;;13.30;8.60;;;;;;;0.68;68.68;96197.02;1834411;76;21228;-85
2021/01/08 08:49:24;;;;;;;12.33;7.85;;;;;;;0.68;68.51;96201.66;1833457;76;21102;-85
2021/01/08 08:51:52;;;;;;;14.87;9.45;;;;;;;0.69;68.04;96194.80;1835428;76;21079;-84
2021/01/08 08:54:19;;;;;;;14.68;8.78;;;;;;;0.73;68.38;96199.99;1834777;76;21227;-85
2021/01/08 08:56:57;;;;;;;14.13;9.30;;;;;;;0.74;67.99;96194.75;1833580;76;21084;-81
2021/01/08 08:59:44;;;;;;;12.53;7.90;;;;;;;0.74;68.23;96199.06;1844233;76;21133;-81
2021/01/08 09:02:26;;;;;;;14.20;7.97;;;;;;;0.79;67.92;96207.16;1846940;76;21068;-81
2021/01/08 09:05:00;;;;;;;12.63;7.78;;;;;;;0.83;68.43;96202.97;1838406;76;21128;-81
2021/01/08 09:07:52;;;;;;;14.78;8.38;;;;;;;0.86;68.06;96197.59;1841696;76;21073;-81
2021/01/08 09:10:28;;;;;;;16.25;9.33;;;;;;;0.88;68.22;96203.86;1750069;81;21362;-81
2021/01/08 09:13:15;;;;;;;9.25;5.60;;;;;;;0.93;67.99;96200.44;1770434;80;21396;-82
2021/01/08 09:15:52;;;;;;;8.33;5.90;;;;;;;0.97;66.92;96195.88;1767575;78;21239;-82
2021/01/08 09:18:52;;;;;;;11.80;7.10;;;;;;;0.97;67.17;96192.84;1812788;77;21129;-83
2021/01/08 09:21:27;;;;;;;11.33;6.62;;;;;;;1.03;67.42;96191.55;1791548;78;21132;-82
2021/01/08 09:23:56;;;;;;;14.87;10.85;;;;;;;1.11;67.59;96196.35;1810716;77;21276;-82
2021/01/08 09:26:22;;;;;;;10.48;6.87;;;;;;;1.20;67.16;96191.76;1792498;76;21612;-82
2021/01/08 09:28:52;;;;;;;7.95;6.03;;;;;;;1.24;66.69;96198.70;1813006;77;21085;-83
2021/01/08 09:31:21;;;;;;;9.95;6.62;;;;;;;1.26;65.82;96201.13;1790735;78;21270;-82
2021/01/08 09:33:58;;;;;;;9.30;6.17;;;;;;;1.27;66.14;96192.52;1812024;77;21152;-82
2021/01/08 09:36:33;;;;;;;10.15;6.20;;;;;;;1.30;66.12;96193.53;1757725;78;21124;-82
2021/01/08 09:39:04;;;;;;;7.33;6.10;;;;;;;1.39;66.14;96195.33;1808462;77;21152;-82
2021/01/08 09:41:31;;;;;;;12.93;9.13;;;;;;;1.42;65.78;96191.22;1786492;78;21136;-82
2021/01/08 09:43:59;;;;;;;10.10;7.65;;;;;;;1.47;66.49;96189.11;1810601;77;21113;-84
2021/01/08 09:46:25;;;;;;;9.13;6.30;;;;;;;1.48;66.13;96186.88;1780114;78;21164;-83
2021/01/08 09:48:52;;;;;;;9.95;6.47;;;;;;;1.57;65.65;96187.36;1798807;77;21492;-84
2021/01/08 09:51:19;;;;;;;11.75;8.00;;;;;;;1.58;65.48;96183.05;1784490;78;21258;-84
2021/01/08 09:53:54;;;;;;;15.60;11.55;;;;;;;1.62;65.64;96185.21;1805662;77;21145;-84
2021/01/08 09:56:20;;;;;;;11.10;6.85;;;;;;;1.70;65.94;96185.38;1818961;76;21124;-81
2021/01/08 09:58:46;;;;;;;7.37;5.12;;;;;;;1.78;65.23;96182.95;1813167;76;21126;-85
2021/01/08 10:01:13;;;;;;;6.55;4.42;;;;;;;1.74;64.79;96184.64;1819067;77;21156;-82
2021/01/08 10:03:41;;;;;;;11.83;8.75;;;;;;;1.70;64.40;96186.66;1817893;76;21135;-82
2021/01/08 10:06:10;;;;;;;8.88;6.60;;;;;;;1.69;65.01;96182.95;1812071;76;21108;-82
2021/01/08 10:08:37;;;;;;;10.03;7.78;;;;;;;1.74;65.00;96183.36;1813343;77;21123;-82
2021/01/08 10:11:05;;;;;;;8.75;5.62;;;;;;;1.78;65.06;96180.39;1811225;77;21433;-82
2021/01/08 10:13:32;;;;;;;7.58;5.78;;;;;;;1.75;65.10;96176.81;1807778;76;21198;-83
2021/01/08 10:16:08;;;;;;;12.18;8.80;;;;;;;1.75;64.86;96178.09;1787902;78;21132;-83
2021/01/08 10:18:36;;;;;;;8.40;6.08;;;;;;;1.80;64.98;96182.84;1782979;78;21111;-84
2021/01/08 10:21:07;;;;;;;5.95;5.00;;;;;;;1.86;64.83;96176.38;1784434;79;21322;-81
2021/01/08 10:23:41;;;;;;;9.20;6.55;;;;;;;1.86;64.61;96168.22;1783028;78;21414;-81
2021/01/08 10:26:18;;;;;;;12.23;9.60;;;;;;;1.86;65.04;96167.41;1780116;79;21104;-84
2021/01/08 10:28:49;;;;;;;11.38;9.33;;;;;;;1.89;64.77;96167.14;1792300;78;21103;-83
2021/01/08 10:31:16;;;;;;;6.35;5.15;;;;;;;1.94;64.94;96168.34;1790319;78;21098;-83
2021/01/08 10:33:42;;;;;;;11.85;9.43;;;;;;;1.95;64.25;96163.59;1778127;78;21109;-81
2021/01/08 10:36:09;;;;;;;11.18;8.20;;;;;;;1.92;64.47;96159.98;1766231;79;21152;-82
2021/01/08 10:38:36;;;;;;;12.73;8.48;;;;;;;1.99;65.03;96166.69;1791534;78;21124;-82
2021/01/08 10:41:02;;;;;;;15.32;10.90;;;;;;;2.06;65.16;96158.78;1767660;79;21125;-82
2021/01/08 10:46:11;;;;;;;16.32;12.20;;;;;;;2.23;65.65;96152.98;1800642;77;22625;-85
2021/01/08 10:48:38;;;;;;;13.13;8.68;;;;;;;2.24;64.84;96153.31;1803851;78;21109;-85
2021/01/08 10:51:04;;;;;;;14.93;9.55;;;;;;;2.25;65.25;96145.95;1804728;78;21137;-82
2021/01/08 10:53:31;;;;;;;9.05;6.90;;;;;;;2.29;64.38;96143.48;1777552;78;21096;-83
2021/01/08 10:55:57;;;;;;;10.78;8.05;;;;;;;2.23;63.64;96146.57;1807786;78;21116;-83
2021/01/08 10:58:23;;;;;;;18.48;12.00;;;;;;;2.23;63.85;96147.05;1806793;78;21326;-84
2021/01/08 11:00:52;;;;;;;12.03;8.68;;;;;;;2.27;64.19;96149.19;1791257;79;21867;-82
2021/01/08 11:03:18;;;;;;;10.93;8.48;;;;;;;2.31;63.56;96145.44;1793591;79;21342;-85
2021/01/08 11:05:44;;;;;;;9.28;7.60;;;;;;;2.35;63.66;96144.69;1792259;79;21276;-85
2021/01/08 11:08:10;;;;;;;11.18;8.20;;;;;;;2.43;63.81;96149.11;1739175;80;21808;-84
2021/01/08 11:10:37;;;;;;;14.33;10.58;;;;;;;2.48;63.86;96146.49;1747966;81;21133;-83
2021/01/08 11:13:04;;;;;;;18.02;11.80;;;;;;;2.51;63.93;96141.56;1761176;81;21149;-83
2021/01/08 11:15:30;;;;;;;16.40;10.20;;;;;;;2.51;63.78;96144.13;1759382;81;21262;-83
2021/01/08 11:17:56;;;;;;;54.15;26.48;;;;;;;2.49;64.05;96140.89;1757906;81;21125;-82
2021/01/08 11:20:23;;;;;;;77.55;32.10;;;;;;;2.49;64.08;96138.33;1758228;81;21142;-83
2021/01/08 11:22:50;;;;;;;44.30;20.27;;;;;;;2.54;64.10;96142.09;1755669;81;21121;-82
2021/01/08 11:25:16;;;;;;;35.70;17.92;;;;;;;2.58;64.01;96133.63;1750474;81;21133;-81
2021/01/08 11:27:42;;;;;;;44.38;19.65;;;;;;;2.54;63.76;96136.15;1751795;81;21288;-82
2021/01/08 11:30:10;;;;;;;42.13;20.32;;;;;;;2.43;64.23;96135.01;1746059;81;21777;-83
2021/01/08 11:32:36;;;;;;;19.27;10.00;;;;;;;2.41;63.94;96134.67;1749307;81;21141;-82
2021/01/08 11:35:03;;;;;;;42.00;21.20;;;;;;;2.31;63.10;96130.05;1748827;81;21244;-82
2021/01/08 11:37:36;;;;;;;14.83;9.40;;;;;;;2.15;63.20;96127.70;1752457;81;21423;-82
2021/01/08 11:40:04;;;;;;;23.80;13.28;;;;;;;2.05;63.03;96129.78;1747739;81;21443;-85
2021/01/08 11:42:32;;;;;;;38.80;19.23;;;;;;;1.93;63.93;96128.77;1750729;81;21141;-84
2021/01/08 11:44:59;;;;;;;42.15;19.87;;;;;;;1.93;63.92;96128.77;1745402;81;21162;-82
2021/01/08 11:47:26;;;;;;;24.27;14.70;;;;;;;2.06;64.65;96119.87;1715911;81;21170;-82
2021/01/08 11:49:52;;;;;;;12.45;8.25;;;;;;;2.12;64.16;96116.45;1784983;79;21117;-82